createdAt,value
2023-11-12T00:02:04.954Z,5.41
2023-11-12T00:04:36.962Z,5.42
2023-11-12T00:07:09.976Z,5.40
2023-11-12T00:09:42.591Z,5.42
2023-11-12T00:12:14.786Z,5.42
2023-11-12T00:14:47.130Z,5.41
2023-11-12T00:17:21.377Z,5.42
2023-11-12T00:19:53.405Z,5.42
2023-11-12T00:22:25.937Z,5.42
2023-11-12T00:24:57.921Z,5.43
2023-11-12T00:27:29.826Z,5.43
2023-11-12T00:30:01.996Z,5.44
2023-11-12T00:32:34.963Z,5.45
2023-11-12T00:35:08.124Z,5.44
2023-11-12T00:37:43.211Z,5.45
2023-11-12T00:40:17.558Z,5.45
2023-11-12T00:42:49.614Z,5.45
2023-11-12T00:45:21.592Z,5.45
2023-11-12T00:47:53.883Z,5.46
2023-11-12T00:50:25.836Z,5.46
2023-11-12T00:52:57.935Z,5.47
2023-11-12T00:55:33.108Z,5.47
2023-11-12T00:58:05.090Z,5.48
2023-11-12T01:00:36.978Z,5.48
2023-11-12T01:03:09.873Z,5.48
2023-11-12T01:05:42.084Z,5.48
2023-11-12T01:08:14.180Z,5.47
2023-11-12T01:10:46.710Z,5.49
2023-11-12T01:13:19.622Z,5.48
2023-11-12T01:15:57.414Z,5.48
2023-11-12T01:18:33.348Z,5.48
2023-11-12T01:21:06.588Z,5.48
2023-11-12T01:23:43.796Z,5.48
2023-11-12T01:26:20.334Z,5.48
2023-11-12T01:28:59.723Z,5.48
2023-11-12T01:31:31.994Z,5.49
2023-11-12T01:34:04.376Z,5.47
2023-11-12T01:36:36.928Z,5.48
2023-11-12T01:39:09.541Z,5.48
2023-11-12T01:41:44.399Z,5.48
2023-11-12T01:44:16.400Z,5.48
2023-11-12T01:46:49.569Z,5.48
2023-11-12T01:49:23.812Z,5.48
2023-11-12T01:51:56.071Z,5.48
2023-11-12T01:54:29.288Z,5.48
2023-11-12T01:57:01.959Z,5.49
2023-11-12T01:59:35.557Z,5.48
2023-11-12T02:02:08.038Z,5.49
2023-11-12T02:04:40.366Z,5.48
2023-11-12T02:07:14.492Z,5.48
2023-11-12T02:09:46.600Z,5.47
2023-11-12T02:12:18.642Z,5.47
2023-11-12T02:14:53.189Z,5.47
2023-11-12T02:17:26.433Z,5.47
2023-11-12T02:20:06.299Z,5.46
2023-11-12T02:22:38.731Z,5.46
2023-11-12T02:25:12.193Z,5.37
2023-11-12T02:27:46.080Z,5.44
2023-11-12T02:30:20.371Z,5.44
2023-11-12T02:32:52.496Z,5.44
2023-11-12T02:35:24.719Z,5.44
2023-11-12T02:37:56.781Z,5.44
2023-11-12T02:40:28.737Z,5.41
2023-11-12T02:43:03.711Z,5.42
2023-11-12T02:45:35.889Z,5.42
2023-11-12T02:48:09.009Z,5.41
2023-11-12T02:50:41.203Z,5.40
2023-11-12T02:53:13.514Z,5.40
2023-11-12T02:55:46.127Z,5.39
2023-11-12T02:58:18.706Z,5.39
2023-11-12T03:00:50.985Z,5.39
2023-11-12T03:03:23.567Z,5.37
2023-11-12T03:05:55.753Z,5.38
2023-11-12T03:08:27.771Z,5.38
2023-11-12T03:11:00.137Z,5.37
2023-11-12T03:13:34.444Z,5.36
2023-11-12T03:16:07.059Z,5.37
2023-11-12T03:18:39.071Z,5.36
2023-11-12T03:21:13.373Z,5.35
2023-11-12T03:23:45.351Z,5.35
2023-11-12T03:26:17.383Z,5.34
2023-11-12T03:28:49.381Z,5.33
2023-11-12T03:31:21.332Z,5.32
2023-11-12T03:33:54.527Z,5.31
2023-11-12T03:36:26.554Z,5.31
2023-11-12T03:38:58.489Z,5.30
2023-11-12T03:41:30.398Z,5.29
2023-11-12T03:44:02.360Z,5.28
2023-11-12T03:46:35.662Z,5.28
2023-11-12T03:49:08.899Z,5.25
2023-11-12T03:51:40.853Z,5.24
2023-11-12T03:54:14.107Z,5.22
2023-11-12T03:56:46.336Z,5.18
2023-11-12T03:59:18.370Z,5.17
2023-11-12T04:01:50.460Z,5.14
2023-11-12T04:04:22.419Z,5.12
2023-11-12T04:06:56.609Z,5.10
2023-11-12T04:09:28.590Z,5.08
2023-11-12T04:12:00.974Z,5.07
2023-11-12T04:14:33.277Z,5.04
2023-11-12T04:17:05.891Z,5.03
2023-11-12T04:19:40.354Z,5.02
2023-11-12T04:22:12.642Z,5.01
2023-11-12T04:24:44.849Z,5.00
2023-11-12T04:27:19.477Z,4.99
2023-11-12T04:29:51.968Z,4.98
2023-11-12T04:32:24.351Z,4.97
2023-11-12T04:34:57.439Z,4.96
2023-11-12T04:37:30.651Z,4.95
2023-11-12T04:40:05.016Z,4.94
2023-11-12T04:42:37.046Z,4.92
2023-11-12T04:45:10.665Z,4.90
2023-11-12T04:47:42.632Z,4.82
2023-11-12T04:50:16.092Z,4.86
2023-11-12T04:52:48.505Z,4.85
2023-11-12T04:55:21.231Z,4.84
2023-11-12T04:57:53.167Z,4.85
2023-11-12T05:00:25.223Z,4.83
2023-11-12T05:02:57.672Z,4.83
2023-11-12T05:05:29.624Z,4.81
2023-11-12T05:08:01.898Z,4.80
2023-11-12T05:10:44.703Z,4.79
2023-11-12T05:13:18.141Z,4.78
2023-11-12T05:15:50.117Z,4.77
2023-11-12T05:18:24.709Z,4.76
2023-11-12T05:20:56.723Z,4.77
2023-11-12T05:23:28.633Z,4.76
2023-11-12T05:26:01.296Z,4.76
2023-11-12T05:28:33.301Z,4.75
2023-11-12T05:31:05.588Z,4.74
2023-11-12T05:33:37.924Z,4.74
2023-11-12T05:36:10.829Z,4.71
2023-11-12T05:38:42.815Z,4.73
2023-11-12T05:41:14.751Z,4.72
2023-11-12T05:43:46.869Z,4.71
2023-11-12T05:46:18.967Z,4.70
2023-11-12T05:48:50.953Z,4.69
2023-11-12T05:51:24.607Z,4.69
2023-11-12T05:53:56.677Z,4.67
2023-11-12T05:56:29.807Z,4.69
2023-11-12T05:59:04.109Z,4.62
2023-11-12T06:01:36.066Z,4.68
2023-11-12T06:04:09.437Z,4.68
2023-11-12T06:06:42.782Z,4.68
2023-11-12T06:09:14.904Z,4.68
2023-11-12T06:11:48.332Z,4.67
2023-11-12T06:14:20.315Z,4.64
2023-11-12T06:16:52.596Z,4.69
2023-11-12T06:19:24.574Z,4.69
2023-11-12T06:21:57.493Z,4.68
2023-11-12T06:24:29.630Z,4.68
2023-11-12T06:27:01.973Z,4.67
2023-11-12T06:29:34.372Z,4.66
2023-11-12T06:32:08.078Z,4.65
2023-11-12T06:34:40.004Z,4.62
2023-11-12T06:37:12.188Z,4.64
2023-11-12T06:39:44.129Z,4.65
2023-11-12T06:42:17.047Z,4.65
2023-11-12T06:44:49.311Z,4.65
2023-11-12T06:47:21.464Z,4.67
2023-11-12T06:49:56.794Z,4.69
2023-11-12T06:52:29.513Z,4.71
2023-11-12T06:55:03.434Z,4.73
2023-11-12T06:57:36.001Z,4.75
2023-11-12T07:00:10.690Z,4.77
2023-11-12T07:02:42.675Z,4.79
2023-11-12T07:05:14.738Z,4.81
2023-11-12T07:07:46.888Z,4.82
2023-11-12T07:10:20.773Z,4.84
2023-11-12T07:12:53.133Z,4.84
2023-11-12T07:15:25.507Z,4.87
2023-11-12T07:17:58.065Z,4.88
2023-11-12T07:20:33.779Z,4.91
2023-11-12T07:23:05.953Z,4.92
2023-11-12T07:25:40.039Z,4.94
2023-11-12T07:28:11.946Z,4.95
2023-11-12T07:30:44.120Z,4.97
2023-11-12T07:33:16.058Z,4.99
2023-11-12T07:35:49.088Z,5.00
2023-11-12T07:38:21.957Z,5.02
2023-11-12T07:40:53.996Z,5.03
2023-11-12T07:43:26.427Z,5.05
2023-11-12T07:46:01.165Z,5.07
2023-11-12T07:48:33.760Z,5.09
2023-11-12T07:51:06.220Z,5.10
2023-11-12T07:53:38.455Z,5.11
2023-11-12T07:56:11.862Z,5.13
2023-11-12T07:58:44.013Z,5.14
2023-11-12T08:01:19.395Z,5.16
2023-11-12T08:03:51.475Z,5.18
2023-11-12T08:06:23.889Z,5.20
2023-11-12T08:08:56.257Z,5.21
2023-11-12T08:11:29.708Z,5.22
2023-11-12T08:14:01.927Z,5.23
2023-11-12T08:16:34.122Z,5.24
2023-11-12T08:19:07.188Z,5.25
2023-11-12T08:21:39.271Z,5.26
2023-11-12T08:24:12.360Z,5.28
2023-11-12T08:26:44.670Z,5.30
2023-11-12T08:29:18.029Z,5.30
2023-11-12T08:31:51.434Z,5.33
2023-11-12T08:34:25.875Z,5.34
2023-11-12T08:36:58.250Z,5.35
2023-11-12T08:39:30.365Z,5.38
2023-11-12T08:42:02.471Z,5.40
2023-11-12T08:44:34.814Z,5.42
2023-11-12T08:47:07.836Z,5.44
2023-11-12T08:49:40.481Z,5.46
2023-11-12T08:52:15.843Z,5.48
2023-11-12T08:54:48.172Z,5.50
2023-11-12T08:57:21.025Z,5.52
2023-11-12T08:59:54.811Z,5.54
2023-11-12T09:02:28.757Z,5.56
2023-11-12T09:05:00.884Z,5.58
2023-11-12T09:07:32.960Z,5.59
2023-11-12T09:10:05.911Z,5.62
2023-11-12T09:12:38.426Z,5.63
2023-11-12T09:15:12.574Z,5.66
2023-11-12T09:17:44.697Z,5.67
2023-11-12T09:20:17.397Z,5.69
2023-11-12T09:22:49.362Z,5.71
2023-11-12T09:25:21.602Z,5.74
2023-11-12T09:27:53.592Z,5.75
2023-11-12T09:30:28.372Z,5.76
2023-11-12T09:33:06.080Z,5.78
2023-11-12T09:35:40.436Z,5.81
2023-11-12T09:38:14.448Z,5.81
2023-11-12T09:40:46.687Z,5.84
2023-11-12T09:43:18.633Z,5.86
2023-11-12T09:45:57.168Z,5.88
2023-11-12T09:48:36.686Z,5.90
2023-11-12T09:51:09.745Z,5.92
2023-11-12T09:53:43.201Z,5.97
2023-11-12T09:56:15.665Z,5.99
2023-11-12T09:58:49.359Z,6.01
2023-11-12T10:01:22.526Z,6.05
2023-11-12T10:03:54.518Z,6.09
2023-11-12T10:06:27.055Z,6.12
2023-11-12T10:09:01.608Z,6.17
2023-11-12T10:11:34.783Z,6.20
2023-11-12T10:14:17.550Z,6.23
2023-11-12T10:16:49.621Z,6.26
2023-11-12T10:19:21.657Z,6.29
2023-11-12T10:21:57.931Z,6.32
2023-11-12T10:24:31.178Z,6.35
2023-11-12T10:27:07.059Z,6.38
2023-11-12T10:29:39.080Z,6.41
2023-11-12T10:32:24.942Z,6.41
2023-11-12T10:34:57.003Z,6.44
2023-11-12T10:37:29.597Z,6.44
2023-11-12T10:40:10.053Z,6.45
2023-11-12T10:42:42.024Z,6.45
2023-11-12T10:45:17.628Z,6.45
2023-11-12T10:47:50.247Z,6.45
2023-11-12T10:50:23.609Z,6.46
2023-11-12T10:52:58.268Z,6.48
2023-11-12T10:55:30.561Z,6.47
2023-11-12T10:58:04.926Z,6.51
2023-11-12T11:00:37.185Z,6.52
2023-11-12T11:03:10.339Z,6.55
2023-11-12T11:05:43.673Z,6.57
2023-11-12T11:08:15.618Z,6.60
2023-11-12T11:10:49.951Z,6.64
2023-11-12T11:13:22.268Z,6.67
2023-11-12T11:15:56.617Z,6.72
2023-11-12T11:18:57.644Z,6.74
2023-11-12T11:21:30.776Z,6.77
2023-11-12T11:24:03.657Z,6.80
2023-11-12T11:26:41.537Z,6.76
2023-11-12T11:29:18.241Z,6.85
2023-11-12T11:32:19.357Z,6.86
2023-11-12T11:34:53.190Z,6.87
2023-11-12T11:37:26.102Z,6.90
2023-11-12T11:40:19.145Z,6.93
2023-11-12T11:43:32.676Z,6.95
2023-11-12T11:46:16.011Z,6.99
2023-11-12T11:49:20.817Z,7.03
2023-11-12T11:51:52.790Z,7.08
2023-11-12T11:54:28.188Z,7.13
2023-11-12T11:57:02.774Z,7.18
2023-11-12T11:59:38.443Z,7.22
2023-11-12T12:02:17.188Z,7.29
2023-11-12T12:04:51.727Z,7.34
2023-11-12T12:07:25.807Z,7.38
2023-11-12T12:10:00.075Z,7.41
2023-11-12T12:12:37.527Z,7.45
2023-11-12T12:15:12.710Z,7.47
2023-11-12T12:17:45.035Z,7.48
2023-11-12T12:20:17.230Z,7.54
2023-11-12T12:22:49.435Z,7.57
2023-11-12T12:25:21.744Z,7.58
2023-11-12T12:27:57.019Z,7.59
2023-11-12T12:30:29.201Z,7.60
2023-11-12T12:33:14.993Z,7.58
2023-11-12T12:35:47.153Z,7.56
2023-11-12T12:38:21.252Z,7.53
2023-11-12T12:41:02.040Z,7.52
2023-11-12T12:46:50.421Z,7.53
2023-11-12T12:49:33.973Z,7.50
2023-11-12T12:52:08.187Z,7.50
2023-11-12T12:54:43.266Z,7.49
2023-11-12T12:57:15.269Z,7.52
2023-11-12T12:59:47.443Z,7.54
2023-11-12T13:02:19.496Z,7.53
2023-11-12T13:04:53.974Z,7.53
2023-11-12T13:07:29.084Z,7.54
2023-11-12T13:10:01.704Z,7.56
2023-11-12T13:12:34.868Z,7.57
2023-11-12T13:15:10.919Z,7.56
2023-11-12T13:17:43.254Z,7.55
2023-11-12T13:20:16.411Z,7.54
2023-11-12T13:22:49.592Z,7.55
2023-11-12T13:25:21.840Z,7.53
2023-11-12T13:27:56.074Z,7.52
2023-11-12T13:30:28.277Z,7.52
2023-11-12T13:33:00.336Z,7.50
2023-11-12T13:35:32.513Z,7.50
2023-11-12T13:38:04.478Z,7.48
2023-11-12T13:40:36.761Z,7.46
2023-11-12T13:43:09.500Z,7.44
2023-11-12T13:45:44.444Z,7.41
2023-11-12T13:48:16.531Z,7.38
2023-11-12T13:50:50.990Z,7.36
2023-11-12T13:53:25.479Z,7.32
2023-11-12T13:56:00.306Z,7.31
2023-11-12T13:58:34.567Z,7.28
2023-11-12T14:01:07.762Z,7.26
2023-11-12T14:03:41.682Z,7.25
2023-11-12T14:06:14.874Z,7.23
2023-11-12T14:08:47.966Z,7.21
2023-11-12T14:11:19.883Z,7.19
2023-11-12T14:13:52.614Z,7.16
2023-11-12T14:16:25.040Z,7.16
2023-11-12T14:18:57.224Z,7.14
2023-11-12T14:21:29.564Z,7.12
2023-11-12T14:24:02.326Z,7.10
2023-11-12T14:26:34.583Z,7.09
2023-11-12T14:29:08.666Z,7.08
2023-11-12T14:31:40.807Z,7.06
2023-11-12T14:34:14.174Z,7.05
2023-11-12T14:36:46.425Z,7.04
2023-11-12T14:39:23.776Z,7.02
2023-11-12T14:41:56.288Z,7.01
2023-11-12T14:44:29.190Z,7.00
2023-11-12T14:47:01.581Z,6.98
2023-11-12T14:49:33.596Z,6.97
2023-11-12T14:52:06.480Z,6.95
2023-11-12T14:54:38.676Z,6.92
2023-11-12T14:57:10.684Z,6.89
2023-11-12T14:59:43.518Z,6.86
2023-11-12T15:02:15.451Z,6.82
2023-11-12T15:04:47.527Z,6.79
2023-11-12T15:07:19.765Z,6.76
2023-11-12T15:09:52.155Z,6.74
2023-11-12T15:12:26.948Z,6.73
2023-11-12T15:14:58.946Z,6.69
2023-11-12T15:17:33.687Z,6.68
2023-11-12T15:20:10.520Z,6.66
2023-11-12T15:22:44.910Z,6.64
2023-11-12T15:25:17.881Z,6.61
2023-11-12T15:27:51.225Z,6.58
2023-11-12T15:30:25.967Z,6.55
2023-11-12T15:32:58.142Z,6.52
2023-11-12T15:35:30.543Z,6.50
2023-11-12T15:38:02.704Z,6.47
2023-11-12T15:40:36.744Z,6.45
2023-11-12T15:43:10.059Z,6.44
2023-11-12T15:45:42.288Z,6.40
2023-11-12T15:48:14.443Z,6.39
2023-11-12T15:50:48.650Z,6.38
2023-11-12T15:53:21.765Z,6.37
2023-11-12T15:55:54.154Z,6.34
2023-11-12T15:58:26.919Z,6.33
2023-11-12T16:01:00.322Z,6.32
2023-11-12T16:03:33.483Z,6.31
2023-11-12T16:06:07.058Z,6.29
2023-11-12T16:08:46.173Z,6.29
2023-11-12T16:11:28.627Z,6.27
2023-11-12T16:14:02.410Z,6.26
2023-11-12T16:16:35.246Z,6.24
2023-11-12T16:19:07.912Z,6.22
2023-11-12T16:21:39.932Z,6.20
2023-11-12T16:24:13.060Z,6.16
2023-11-12T16:26:45.134Z,6.16
2023-11-12T16:29:17.405Z,6.14
2023-11-12T16:31:50.205Z,6.04
2023-11-12T16:34:22.305Z,6.10
2023-11-12T16:36:54.759Z,6.07
2023-11-12T16:39:28.902Z,6.05
2023-11-12T16:42:03.528Z,6.02
2023-11-12T16:44:35.633Z,6.01
2023-11-12T16:47:08.753Z,5.97
2023-11-12T16:49:41.882Z,5.97
2023-11-12T16:52:14.569Z,5.95
2023-11-12T16:54:47.009Z,5.93
2023-11-12T16:57:19.226Z,5.91
2023-11-12T16:59:51.683Z,5.89
2023-11-12T17:02:23.981Z,5.87
2023-11-12T17:04:56.504Z,5.86
2023-11-12T17:07:31.733Z,5.84
2023-11-12T17:10:04.988Z,5.78
2023-11-12T17:12:39.617Z,5.77
2023-11-12T17:15:13.074Z,5.75
2023-11-12T17:17:48.598Z,5.72
2023-11-12T17:20:21.494Z,5.72
2023-11-12T17:22:53.459Z,5.70
2023-11-12T17:25:29.178Z,5.71
2023-11-12T17:28:01.811Z,5.71
2023-11-12T17:30:35.829Z,5.71
2023-11-12T17:33:13.707Z,5.71
2023-11-12T17:35:46.093Z,5.70
2023-11-12T17:38:19.617Z,5.72
2023-11-12T17:40:51.709Z,5.73
2023-11-12T17:43:26.267Z,5.72
2023-11-12T17:45:58.328Z,5.73
2023-11-12T17:48:31.942Z,5.72
2023-11-12T17:51:04.095Z,5.72
2023-11-12T17:53:37.705Z,5.72
2023-11-12T17:56:10.731Z,5.70
2023-11-12T17:58:45.825Z,5.70
2023-11-12T18:01:19.913Z,5.67
2023-11-12T18:03:58.837Z,5.68
2023-11-12T18:06:34.343Z,5.67
2023-11-12T18:09:06.681Z,5.64
2023-11-12T18:11:40.791Z,5.61
2023-11-12T18:14:16.311Z,5.60
2023-11-12T18:16:48.688Z,5.59
2023-11-12T18:19:21.421Z,5.59
2023-11-12T18:21:58.347Z,5.58
2023-11-12T18:24:30.769Z,5.57
2023-11-12T18:27:03.030Z,5.56
2023-11-12T18:29:35.116Z,5.56
2023-11-12T18:32:08.189Z,5.56
2023-11-12T18:34:40.729Z,5.56
2023-11-12T18:37:13.147Z,5.53
2023-11-12T18:39:45.841Z,5.55
2023-11-12T18:42:17.903Z,5.54
2023-11-12T18:44:50.120Z,5.54
2023-11-12T18:47:24.638Z,5.52
2023-11-12T18:49:59.809Z,5.51
2023-11-12T18:52:32.826Z,5.49
2023-11-12T18:55:05.109Z,5.46
2023-11-12T18:57:37.732Z,5.43
2023-11-12T19:00:12.561Z,5.41
2023-11-12T19:02:45.034Z,5.39
2023-11-12T19:05:19.910Z,5.37
2023-11-12T19:07:52.430Z,5.36
2023-11-12T19:10:24.631Z,5.36
2023-11-12T19:12:56.791Z,5.35
2023-11-12T19:15:28.689Z,5.35
2023-11-12T19:18:01.040Z,5.35
2023-11-12T19:20:35.569Z,5.34
2023-11-12T19:23:08.213Z,5.35
2023-11-12T19:25:44.348Z,5.36
2023-11-12T19:28:19.160Z,5.36
2023-11-12T19:30:54.680Z,5.36
2023-11-12T19:33:29.525Z,5.37
2023-11-12T19:36:04.727Z,5.37
2023-11-12T19:38:39.184Z,5.36
2023-11-12T19:41:15.857Z,5.34
2023-11-12T19:43:49.513Z,5.33
2023-11-12T19:46:22.805Z,5.32
2023-11-12T19:48:55.295Z,5.31
2023-11-12T19:51:30.307Z,5.32
2023-11-12T19:54:04.683Z,5.32
2023-11-12T19:56:41.405Z,5.33
2023-11-12T19:59:14.628Z,5.32
2023-11-12T20:01:49.583Z,5.31
2023-11-12T20:04:26.387Z,5.31
2023-11-12T20:07:00.460Z,5.32
2023-11-12T20:09:33.121Z,5.32
2023-11-12T20:12:06.476Z,5.32
2023-11-12T20:14:39.048Z,5.32
2023-11-12T20:17:15.201Z,5.32
2023-11-12T20:19:48.337Z,5.31
2023-11-12T20:22:20.332Z,5.30
2023-11-12T20:24:52.345Z,5.23
2023-11-12T20:27:24.475Z,5.28
2023-11-12T20:29:59.377Z,5.26
2023-11-12T20:32:32.579Z,5.24
2023-11-12T20:35:05.003Z,5.22
2023-11-12T20:37:37.128Z,5.20
2023-11-12T20:40:11.393Z,5.19
2023-11-12T20:42:44.302Z,5.20
2023-11-12T20:45:18.988Z,5.19
2023-11-12T20:47:54.455Z,5.20
2023-11-12T20:50:36.732Z,5.19
2023-11-12T20:53:09.814Z,5.20
2023-11-12T20:55:44.789Z,5.21
2023-11-12T20:58:18.252Z,5.22
2023-11-12T21:00:56.542Z,5.21
2023-11-12T21:03:29.140Z,5.22
2023-11-12T21:06:01.311Z,5.24
2023-11-12T21:08:35.741Z,5.23
2023-11-12T21:11:11.580Z,5.23
2023-11-12T21:13:44.616Z,5.22
2023-11-12T21:16:18.439Z,5.22
2023-11-12T21:18:52.459Z,5.15
2023-11-12T21:21:25.454Z,5.23
2023-11-12T21:23:57.971Z,5.24
2023-11-12T21:26:32.938Z,5.24
2023-11-12T21:29:05.152Z,5.24
2023-11-12T21:31:39.821Z,5.26
2023-11-12T21:34:12.046Z,5.26
2023-11-12T21:36:45.364Z,5.26
2023-11-12T21:39:18.472Z,5.26
2023-11-12T21:41:50.430Z,5.26
2023-11-12T21:44:25.058Z,5.25
2023-11-12T21:46:59.978Z,5.24
2023-11-12T21:49:31.985Z,5.23
2023-11-12T21:52:05.062Z,5.22
2023-11-12T21:54:37.626Z,5.21
2023-11-12T21:57:09.743Z,5.21
2023-11-12T21:59:44.718Z,5.23
2023-11-12T22:02:19.400Z,5.24
2023-11-12T22:04:52.036Z,5.24
2023-11-12T22:07:26.085Z,5.23
2023-11-12T22:09:58.058Z,5.20
2023-11-12T22:12:30.069Z,5.19
2023-11-12T22:15:01.972Z,5.19
2023-11-12T22:17:35.753Z,5.18
2023-11-12T22:20:15.168Z,5.16
2023-11-12T22:22:49.103Z,5.17
2023-11-12T22:25:21.879Z,5.17
2023-11-12T22:27:56.365Z,5.17
2023-11-12T22:30:28.293Z,5.17
2023-11-12T22:33:00.449Z,5.17
2023-11-12T22:35:35.292Z,5.17
2023-11-12T22:38:08.316Z,5.17
2023-11-12T22:40:40.443Z,5.18
2023-11-12T22:43:12.466Z,5.17
2023-11-12T22:45:44.538Z,5.17
2023-11-12T22:48:16.765Z,5.17
2023-11-12T22:50:48.762Z,5.16
2023-11-12T22:53:21.715Z,5.16
2023-11-12T22:55:53.816Z,5.15
2023-11-12T22:58:26.294Z,5.15
2023-11-12T23:01:04.464Z,5.15
2023-11-12T23:03:39.374Z,5.15
2023-11-12T23:06:12.143Z,5.16
2023-11-12T23:08:46.878Z,5.16
2023-11-12T23:11:18.877Z,5.16
2023-11-12T23:13:51.077Z,5.17
2023-11-12T23:16:24.768Z,5.18
2023-11-12T23:18:56.755Z,5.18
2023-11-12T23:21:29.184Z,5.17
2023-11-12T23:24:01.200Z,5.18
2023-11-12T23:26:33.167Z,5.18
2023-11-12T23:29:05.436Z,5.17
2023-11-12T23:31:37.425Z,5.19
2023-11-12T23:34:09.565Z,5.19
2023-11-12T23:36:42.359Z,5.19
2023-11-12T23:39:15.385Z,5.21
2023-11-12T23:41:47.541Z,5.20
2023-11-12T23:44:19.716Z,5.21
2023-11-12T23:46:51.723Z,5.19
2023-11-12T23:49:23.733Z,5.21
2023-11-12T23:51:55.660Z,5.21
2023-11-12T23:54:27.621Z,5.22
2023-11-12T23:56:59.513Z,5.22
2023-11-12T23:59:32.936Z,5.22
